This is the latest recevied weather packets stored in our database for station/object KC2GYU. If no packets are shown the sender has not sent any weather packets the latest 10 day(s).
| Time | Temp. | Humidity | Pressure | Rain* | Wind** | Luminosity | Snow |
|---|---|---|---|---|---|---|---|
| 1777579023 | 18.89° C | 62% | 1007.4 hPa | 0 mm | - | 201 W/m² | - |
| 1777578718 | 19.44° C | 62% | 1007.5 hPa | 0 mm | - | 743 W/m² | - |
| 1777578417 | 18.89° C | 61% | 1007.5 hPa | 0 mm | - | 694 W/m² | - |
| 1777578113 | 18.89° C | 64% | 1007.5 hPa | 0 mm | - | 535 W/m² | - |
| 1777577810 | 18.89° C | 61% | 1007.5 hPa | 0 mm | - | 236 W/m² | - |
| 1777577505 | 18.89° C | 64% | 1007.2 hPa | 0 mm | - | 729 W/m² | - |
| 1777577202 | 19.44° C | 64% | 1007.4 hPa | 0 mm | - | 151 W/m² | - |
| 1777576898 | 19.44° C | 62% | 1007.6 hPa | 0 mm | - | 689 W/m² | - |
| 1777576598 | 18.89° C | 65% | 1007.4 hPa | 0 mm | - | 745 W/m² | - |
| 1777576293 | 18.89° C | 64% | 1007.5 hPa | 0 mm | - | 162 W/m² | - |
| 1777575991 | 18.33° C | 67% | 1007.3 hPa | 0 mm | - | 703 W/m² | - |
| 1777575687 | 18.33° C | 66% | 1007.6 hPa | 0 mm | - | 299 W/m² | - |
| 1777575382 | 18.89° C | 66% | 1007.8 hPa | 0 mm | - | 688 W/m² | - |
| 1777575079 | 18.33° C | 69% | 1007.7 hPa | 0 mm | - | 695 W/m² | - |
| 1777574775 | 18.89° C | 68% | 1007.8 hPa | 0 mm | - | 137 W/m² | - |
| 1777574473 | 18.33° C | 69% | 1007.8 hPa | 0 mm | - | 694 W/m² | - |
| 1777574168 | 17.78° C | 70% | 1007.9 hPa | 0 mm | - | 691 W/m² | - |
| 1777573863 | 17.22° C | 75% | 1007.8 hPa | 0 mm | - | 221 W/m² | - |
| 1777573558 | 17.22° C | 74% | 1007.6 hPa | 0 mm | - | 201 W/m² | - |
| 1777573255 | 18.33° C | 71% | 1007.6 hPa | 0 mm | - | 152 W/m² | - |
| 1777572951 | 17.78° C | 72% | 1007.5 hPa | 0 mm | - | 779 W/m² | - |
| 1777572647 | 16.67° C | 74% | 1007.6 hPa | 0 mm | - | 297 W/m² | - |
| 1777572347 | 17.22° C | 74% | 1007.8 hPa | 0 mm | - | 235 W/m² | - |
| 1777572044 | 17.22° C | 75% | 1007.9 hPa | 0 mm | - | 396 W/m² | - |
| 1777571743 | 16.67° C | 75% | 1008.1 hPa | 0 mm | - | 283 W/m² | - |
* Rain latest hour (hover to see other rain measurements)
** Current wind speed in m/s (hover to see current wind gust speed)